首页
METAR-TAF:

METAR-TAF

机场 :

奧爾比亞, 意大利

纬度: 40-54N, 经度: 009-31E, 海拔: 11米

当前天气观测

该预报发布于29分钟前的00:50 UTC
风速6节,风向西南
温度 9°C
湿度 93%
气压 1011 hPa
能见度10公里或以上
1500米以下无云,无积雨云

METAR: LIEO 180050Z 23006KT CAVOK 09/08 Q1011

时间: 02:19 (01:19 UTC)

预报

该预报发布于2小时和19分钟前的23:00 UTC
预报有效从18日的 00点(UTC)到 18日的 24点(UTC)
风速14节,风向西转西南
能见度10公里或以上
散云层高于3000英尺
短暂存在
从 18日的 15点(UTC)到 18日的 24点(UTC)
能見度: 4000

TAF: LIEO 172300Z 1800/1824 25014KT 9999 SCT030 TEMPO 1815/1824 4000 RA

超过4000个机场的气象观测和天气预报(METAR&TAF报告)。

可查询的气象台以黄色和红色小点在地图上表示。

将鼠标移到小点上方,可查看气象台名称。

然后点击查看天气观测和预报。

如需切换地图:点击带黑十字的绿色按钮放大地图;点击带横线的绿色按钮缩小地图;或者点击绿色箭头查看邻近地区的地图。


METAR-TAF: